createdAt,value
2017-08-12T00:02:01.861Z,58.50
2017-08-12T00:04:29.419Z,58.60
2017-08-12T00:06:56.877Z,58.00
2017-08-12T00:09:24.839Z,57.90
2017-08-12T00:11:52.321Z,57.80
2017-08-12T00:14:19.755Z,57.40
2017-08-12T00:16:47.226Z,57.30
2017-08-12T00:19:14.646Z,57.00
2017-08-12T00:21:42.169Z,56.90
2017-08-12T00:24:09.682Z,56.90
2017-08-12T00:26:37.123Z,56.70
2017-08-12T00:29:04.564Z,56.90
2017-08-12T00:31:31.984Z,57.40
2017-08-12T00:33:59.425Z,57.30
2017-08-12T00:36:26.880Z,56.60
2017-08-12T00:38:54.332Z,56.70
2017-08-12T00:41:21.779Z,56.60
2017-08-12T00:43:49.224Z,56.70
2017-08-12T00:46:16.665Z,56.60
2017-08-12T00:48:44.103Z,56.70
2017-08-12T00:51:12.292Z,54.50
2017-08-12T00:53:39.729Z,54.30
2017-08-12T00:56:07.157Z,56.30
2017-08-12T00:58:34.592Z,56.80
2017-08-12T01:01:02.039Z,56.60
2017-08-12T01:03:29.461Z,57.00
2017-08-12T01:05:56.905Z,54.80
2017-08-12T01:08:25.101Z,55.90
2017-08-12T01:10:52.536Z,56.00
2017-08-12T01:13:19.974Z,55.90
2017-08-12T01:15:47.408Z,54.70
2017-08-12T01:18:14.841Z,54.30
2017-08-12T01:20:42.277Z,55.20
2017-08-12T01:23:09.701Z,56.00
2017-08-12T01:25:37.906Z,56.80
2017-08-12T01:28:05.340Z,56.60
2017-08-12T01:30:32.789Z,56.90
2017-08-12T01:33:00.237Z,56.60
2017-08-12T01:35:27.680Z,54.40
2017-08-12T01:37:55.134Z,56.90
2017-08-12T01:40:22.573Z,56.70
2017-08-12T01:42:50.016Z,57.50
2017-08-12T01:45:17.608Z,56.90
2017-08-12T01:47:45.032Z,56.30
2017-08-12T01:50:12.452Z,57.10
2017-08-12T01:52:39.909Z,56.70
2017-08-12T01:55:07.352Z,57.50
2017-08-12T01:57:34.794Z,58.00
2017-08-12T02:00:02.228Z,57.50
2017-08-12T02:02:29.696Z,57.40
2017-08-12T02:04:57.230Z,57.50
2017-08-12T02:07:24.681Z,57.00
2017-08-12T02:09:52.114Z,58.00
2017-08-12T02:12:19.568Z,55.00
2017-08-12T02:14:47.059Z,58.00
2017-08-12T02:17:14.692Z,58.20
2017-08-12T02:19:42.124Z,57.40
2017-08-12T02:22:10.341Z,59.70
2017-08-12T02:24:37.777Z,59.70
2017-08-12T02:27:05.212Z,59.90
2017-08-12T02:29:32.664Z,61.20
2017-08-12T02:32:00.168Z,61.60
2017-08-12T02:34:27.629Z,61.60
2017-08-12T02:36:55.064Z,60.70
2017-08-12T02:39:22.500Z,61.60
2017-08-12T02:41:49.935Z,62.40
2017-08-12T02:44:17.368Z,59.90
2017-08-12T02:46:44.798Z,62.90
2017-08-12T02:49:12.264Z,63.00
2017-08-12T02:51:39.730Z,62.10
2017-08-12T02:54:07.289Z,63.20
2017-08-12T02:56:34.728Z,63.10
2017-08-12T02:59:02.185Z,63.10
2017-08-12T03:01:29.624Z,63.80
2017-08-12T03:03:57.070Z,62.90
2017-08-12T03:06:24.505Z,62.80
2017-08-12T03:08:51.933Z,64.30
2017-08-12T03:11:19.472Z,64.00
2017-08-12T03:13:46.908Z,64.70
2017-08-12T03:16:14.359Z,65.30
2017-08-12T03:18:41.796Z,65.00
2017-08-12T03:21:09.234Z,65.30
2017-08-12T03:23:36.660Z,64.90
2017-08-12T03:26:04.115Z,64.50
2017-08-12T03:28:31.564Z,63.80
2017-08-12T03:30:59.130Z,64.60
2017-08-12T03:33:26.769Z,64.40
2017-08-12T03:35:54.205Z,64.80
2017-08-12T03:38:21.628Z,64.20
2017-08-12T03:40:49.064Z,63.90
2017-08-12T03:43:16.632Z,63.70
2017-08-12T03:45:44.117Z,63.80
2017-08-12T03:48:11.545Z,64.20
2017-08-12T03:50:38.988Z,63.90
2017-08-12T03:53:06.437Z,63.60
2017-08-12T03:55:33.900Z,63.20
2017-08-12T03:58:01.342Z,63.20
2017-08-12T04:00:28.782Z,63.20
2017-08-12T04:02:56.221Z,62.50
2017-08-12T04:05:23.690Z,62.60
2017-08-12T04:07:51.125Z,62.50
2017-08-12T04:10:19.325Z,63.20
2017-08-12T04:12:46.825Z,63.10
2017-08-12T04:15:14.262Z,63.50
2017-08-12T04:17:41.703Z,62.90
2017-08-12T04:20:09.129Z,63.10
2017-08-12T04:22:36.584Z,62.20
2017-08-12T04:25:04.016Z,62.30
2017-08-12T04:27:31.447Z,60.80
2017-08-12T04:29:58.892Z,62.10
2017-08-12T04:32:26.325Z,61.30
2017-08-12T04:34:53.768Z,62.30
2017-08-12T04:37:21.196Z,63.20
2017-08-12T04:39:48.633Z,63.00
2017-08-12T04:42:16.281Z,62.70
2017-08-12T04:44:43.733Z,62.70
2017-08-12T04:47:11.165Z,62.00
2017-08-12T04:49:38.600Z,63.00
2017-08-12T04:52:06.032Z,63.10
2017-08-12T04:54:33.482Z,63.50
2017-08-12T04:57:00.917Z,61.80
2017-08-12T04:59:28.401Z,62.60
2017-08-12T05:01:55.833Z,62.70
2017-08-12T05:04:23.279Z,63.20
2017-08-12T05:06:50.705Z,63.00
2017-08-12T05:09:18.144Z,62.70
2017-08-12T05:11:46.345Z,63.20
2017-08-12T05:14:13.772Z,63.20
2017-08-12T05:16:41.220Z,62.40
2017-08-12T05:19:08.652Z,63.20
2017-08-12T05:21:36.185Z,63.80
2017-08-12T05:24:03.714Z,63.00
2017-08-12T05:26:31.147Z,62.30
2017-08-12T05:28:58.577Z,62.90
2017-08-12T05:31:26.248Z,61.30
2017-08-12T05:33:53.674Z,62.60
2017-08-12T05:36:21.112Z,63.70
2017-08-12T05:38:48.688Z,64.20
2017-08-12T05:41:16.452Z,64.50
2017-08-12T05:43:43.880Z,62.80
2017-08-12T05:46:11.320Z,63.80
2017-08-12T05:48:38.778Z,62.00
2017-08-12T05:51:06.208Z,62.70
2017-08-12T05:53:33.651Z,62.70
2017-08-12T05:56:01.106Z,62.70
2017-08-12T05:58:29.353Z,62.20
2017-08-12T06:00:56.902Z,62.50
2017-08-12T06:03:24.362Z,62.20
2017-08-12T06:05:51.836Z,62.00
2017-08-12T06:08:19.277Z,61.80
2017-08-12T06:10:46.716Z,59.80
2017-08-12T06:13:14.189Z,60.70
2017-08-12T06:15:41.632Z,61.00
2017-08-12T06:18:09.069Z,61.10
2017-08-12T06:20:37.289Z,57.80
2017-08-12T06:23:04.757Z,58.10
2017-08-12T06:25:32.386Z,59.70
2017-08-12T06:27:59.821Z,60.90
2017-08-12T06:30:28.033Z,58.60
2017-08-12T06:32:55.490Z,58.70
2017-08-12T06:35:22.934Z,59.00
2017-08-12T06:37:50.361Z,59.10
2017-08-12T06:40:17.795Z,59.10
2017-08-12T06:42:45.228Z,56.80
2017-08-12T06:45:12.683Z,56.60
2017-08-12T06:47:40.117Z,56.50
2017-08-12T06:50:07.557Z,57.60
2017-08-12T06:52:34.980Z,57.10
2017-08-12T06:55:03.189Z,57.60
2017-08-12T06:57:30.695Z,57.60
2017-08-12T06:59:58.149Z,57.70
2017-08-12T07:02:25.802Z,57.80
2017-08-12T07:04:53.374Z,57.40
2017-08-12T07:07:20.812Z,57.30
2017-08-12T07:09:48.256Z,57.60
2017-08-12T07:12:15.689Z,57.00
2017-08-12T07:14:43.174Z,57.50
2017-08-12T07:17:10.620Z,56.20
2017-08-12T07:19:38.049Z,55.30
2017-08-12T07:22:05.484Z,55.20
2017-08-12T07:24:32.917Z,55.70
2017-08-12T07:27:00.420Z,55.20
2017-08-12T07:29:27.841Z,54.80
2017-08-12T07:31:55.275Z,54.40
2017-08-12T07:34:22.702Z,55.30
2017-08-12T07:36:50.193Z,55.30
2017-08-12T07:39:17.626Z,53.10
2017-08-12T07:41:45.105Z,52.40
2017-08-12T07:44:12.640Z,53.30
2017-08-12T07:46:40.072Z,51.00
2017-08-12T07:49:07.492Z,48.30
2017-08-12T07:51:34.934Z,49.60
2017-08-12T07:54:02.354Z,50.50
2017-08-12T07:56:29.784Z,47.60
2017-08-12T07:58:57.222Z,45.20
2017-08-12T08:01:25.432Z,44.70
2017-08-12T08:03:52.853Z,44.60
2017-08-12T08:06:20.273Z,42.20
2017-08-12T08:08:47.705Z,40.60
2017-08-12T08:11:15.144Z,40.50
2017-08-12T08:13:42.613Z,42.10
2017-08-12T08:16:10.036Z,42.20
2017-08-12T08:18:38.534Z,40.70
2017-08-12T08:21:05.961Z,40.70
2017-08-12T08:23:33.396Z,40.90
2017-08-12T08:26:00.877Z,40.60
2017-08-12T08:28:28.341Z,39.60
2017-08-12T08:30:55.776Z,39.50
2017-08-12T08:33:23.221Z,38.40
2017-08-12T08:35:50.756Z,38.80
2017-08-12T08:38:18.189Z,38.90
2017-08-12T08:40:45.622Z,39.10
2017-08-12T08:43:13.045Z,38.10
2017-08-12T08:45:40.488Z,36.90
2017-08-12T08:48:08.041Z,37.10
2017-08-12T08:50:35.481Z,37.60
2017-08-12T08:53:02.912Z,38.10
2017-08-12T08:55:30.340Z,37.60
2017-08-12T08:57:57.771Z,34.60
2017-08-12T09:00:25.207Z,36.70
2017-08-12T09:02:52.638Z,37.20
2017-08-12T09:05:20.092Z,35.30
2017-08-12T09:07:48.276Z,37.20
2017-08-12T09:10:15.705Z,37.00
2017-08-12T09:12:43.133Z,37.70
2017-08-12T09:15:10.589Z,37.50
2017-08-12T09:17:38.000Z,36.30
2017-08-12T09:20:05.439Z,36.50
2017-08-12T09:22:33.629Z,36.40
2017-08-12T09:25:01.060Z,36.40
2017-08-12T09:27:28.477Z,36.20
2017-08-12T09:29:55.925Z,36.80
2017-08-12T09:32:24.030Z,36.00
2017-08-12T09:34:51.449Z,35.90
2017-08-12T09:37:18.887Z,36.40
2017-08-12T09:39:46.468Z,37.00
2017-08-12T09:42:13.905Z,36.80
2017-08-12T09:44:41.320Z,37.70
2017-08-12T09:47:08.748Z,38.10
2017-08-12T09:49:36.175Z,37.70
2017-08-12T09:52:03.613Z,37.80
2017-08-12T09:54:31.040Z,37.80
2017-08-12T09:56:58.463Z,38.60
2017-08-12T09:59:25.880Z,40.20
2017-08-12T10:01:53.314Z,39.50
2017-08-12T10:04:20.728Z,39.50
2017-08-12T10:06:48.173Z,39.30
2017-08-12T10:09:15.590Z,37.90
2017-08-12T10:11:43.034Z,38.00
2017-08-12T10:14:10.463Z,36.60
2017-08-12T10:16:37.880Z,37.40
2017-08-12T10:19:05.309Z,37.40
2017-08-12T10:21:33.501Z,38.10
2017-08-12T10:24:00.936Z,38.10
2017-08-12T10:26:28.360Z,36.40
2017-08-12T10:28:55.803Z,36.50
2017-08-12T10:31:23.225Z,36.90
2017-08-12T10:33:50.724Z,37.30
2017-08-12T10:36:18.152Z,37.90
2017-08-12T10:38:45.584Z,36.90
2017-08-12T10:41:13.948Z,35.70
2017-08-12T10:43:41.476Z,36.30
2017-08-12T10:46:08.905Z,37.90
2017-08-12T10:48:36.353Z,38.00
2017-08-12T10:51:03.792Z,36.00
2017-08-12T10:53:31.225Z,37.50
2017-08-12T10:55:59.452Z,39.20
2017-08-12T10:58:26.886Z,39.20
2017-08-12T11:00:55.224Z,38.90
2017-08-12T11:03:22.667Z,39.70
2017-08-12T11:05:50.125Z,41.00
2017-08-12T11:08:17.532Z,40.80
2017-08-12T11:10:44.969Z,39.30
2017-08-12T11:13:13.148Z,40.90
2017-08-12T11:15:40.584Z,40.80
2017-08-12T11:18:08.035Z,42.40
2017-08-12T11:20:35.482Z,42.00
2017-08-12T11:23:02.889Z,41.10
2017-08-12T11:25:30.457Z,40.80
2017-08-12T11:27:57.884Z,42.10
2017-08-12T11:30:25.317Z,42.50
2017-08-12T11:32:52.829Z,41.30
2017-08-12T11:35:20.256Z,41.10
2017-08-12T11:37:47.692Z,42.60
2017-08-12T11:40:15.117Z,41.90
2017-08-12T11:42:42.549Z,41.30
2017-08-12T11:45:10.109Z,40.90
2017-08-12T11:47:37.560Z,40.90
2017-08-12T11:50:04.992Z,41.00
2017-08-12T11:52:32.434Z,40.70
2017-08-12T11:54:59.853Z,40.90
2017-08-12T11:57:27.284Z,41.40
2017-08-12T11:59:54.721Z,40.50
2017-08-12T12:02:22.139Z,40.50
2017-08-12T12:04:49.668Z,40.80
2017-08-12T12:07:17.090Z,41.50
2017-08-12T12:09:44.534Z,41.90
2017-08-12T12:12:11.953Z,41.50
2017-08-12T12:14:39.381Z,41.70
2017-08-12T12:17:06.816Z,39.80
2017-08-12T12:19:34.263Z,40.30
2017-08-12T12:22:01.829Z,39.20
2017-08-12T12:24:29.265Z,38.20
2017-08-12T12:26:57.502Z,37.00
2017-08-12T12:29:24.920Z,37.00
2017-08-12T12:31:52.399Z,37.70
2017-08-12T12:34:19.860Z,37.70
2017-08-12T12:36:47.312Z,37.70
2017-08-12T12:39:14.743Z,37.70
2017-08-12T12:41:42.173Z,37.90
2017-08-12T12:44:09.600Z,38.40
2017-08-12T12:46:37.029Z,38.90
2017-08-12T12:49:04.449Z,39.40
2017-08-12T12:51:31.884Z,39.50
2017-08-12T12:54:00.089Z,38.80
2017-08-12T12:56:27.526Z,38.80
2017-08-12T12:58:54.941Z,39.10
2017-08-12T13:01:22.490Z,39.20
2017-08-12T13:03:49.948Z,38.80
2017-08-12T13:06:17.389Z,39.20
2017-08-12T13:08:44.804Z,38.50
2017-08-12T13:11:12.307Z,37.80
2017-08-12T13:13:39.773Z,38.00
2017-08-12T13:16:07.484Z,38.30
2017-08-12T13:18:34.905Z,38.30
2017-08-12T13:21:02.450Z,38.40
2017-08-12T13:23:30.096Z,38.50
2017-08-12T13:25:57.513Z,37.80
2017-08-12T13:28:25.693Z,38.60
2017-08-12T13:30:53.118Z,38.60
2017-08-12T13:33:20.590Z,38.60
2017-08-12T13:35:48.013Z,37.60
2017-08-12T13:38:15.450Z,36.80
2017-08-12T13:43:16.784Z,37.80
2017-08-12T13:45:44.217Z,37.10
2017-08-12T13:48:12.413Z,37.50
2017-08-12T13:50:39.833Z,37.50
2017-08-12T13:53:07.278Z,38.10
2017-08-12T13:55:34.817Z,37.00
2017-08-12T13:58:02.244Z,36.20
2017-08-12T14:00:29.665Z,36.20
2017-08-12T14:02:57.108Z,35.60
2017-08-12T14:05:24.645Z,36.40
2017-08-12T14:07:52.097Z,34.40
2017-08-12T14:10:19.529Z,33.60
2017-08-12T14:12:46.953Z,32.70
2017-08-12T14:15:14.433Z,32.90
2017-08-12T14:17:41.860Z,32.60
2017-08-12T14:20:09.276Z,33.40
2017-08-12T14:22:36.721Z,34.20
2017-08-12T14:25:04.137Z,36.60
2017-08-12T14:27:32.350Z,37.00
2017-08-12T14:29:59.777Z,36.90
2017-08-12T14:32:27.268Z,38.40
2017-08-12T14:34:54.692Z,38.00
2017-08-12T14:37:22.133Z,38.70
2017-08-12T14:39:49.552Z,37.50
2017-08-12T14:42:17.001Z,38.20
2017-08-12T14:44:44.425Z,37.60
2017-08-12T14:47:11.856Z,38.00
2017-08-12T14:49:40.053Z,39.00
2017-08-12T14:52:07.487Z,39.00
2017-08-12T14:54:35.001Z,38.60
2017-08-12T14:57:02.417Z,37.10
2017-08-12T14:59:29.841Z,37.00
2017-08-12T15:01:57.277Z,37.40
2017-08-12T15:04:24.808Z,35.20
2017-08-12T15:06:52.264Z,36.60
2017-08-12T15:09:19.693Z,36.40
2017-08-12T15:11:47.130Z,37.50
2017-08-12T15:14:14.636Z,37.80
2017-08-12T15:16:42.089Z,39.50
2017-08-12T15:19:09.521Z,39.40
2017-08-12T15:21:37.013Z,38.40
2017-08-12T15:24:04.498Z,38.50
2017-08-12T15:26:31.920Z,39.20
2017-08-12T15:28:59.356Z,39.20
2017-08-12T15:31:26.815Z,39.00
2017-08-12T15:33:54.237Z,38.50
2017-08-12T15:36:21.661Z,38.50
2017-08-12T15:38:49.092Z,38.70
2017-08-12T15:41:16.613Z,39.00
2017-08-12T15:43:44.049Z,36.30
2017-08-12T15:46:11.508Z,37.40
2017-08-12T15:48:38.937Z,37.70
2017-08-12T15:51:06.389Z,37.60
2017-08-12T15:53:33.804Z,37.40
2017-08-12T15:56:01.233Z,37.30
2017-08-12T15:58:29.431Z,37.90
2017-08-12T16:00:56.848Z,38.00
2017-08-12T16:03:24.277Z,38.00
2017-08-12T16:05:51.704Z,38.20
2017-08-12T16:08:19.164Z,35.40
2017-08-12T16:10:46.644Z,34.80
2017-08-12T16:13:14.072Z,34.80
2017-08-12T16:15:41.548Z,35.60
2017-08-12T16:18:09.040Z,36.40
2017-08-12T16:20:36.473Z,35.00
2017-08-12T16:23:03.901Z,35.90
2017-08-12T16:25:31.316Z,35.60
2017-08-12T16:27:58.997Z,36.00
2017-08-12T16:30:26.405Z,35.50
2017-08-12T16:32:53.840Z,34.70
2017-08-12T16:35:21.252Z,35.00
2017-08-12T16:37:48.708Z,35.40
2017-08-12T16:40:16.137Z,35.70
2017-08-12T16:42:43.566Z,35.30
2017-08-12T16:45:11.005Z,36.00
2017-08-12T16:47:38.420Z,36.70
2017-08-12T16:50:05.863Z,37.80
2017-08-12T16:52:33.281Z,37.80
2017-08-12T16:55:00.709Z,37.40
2017-08-12T16:57:28.137Z,38.40
2017-08-12T16:59:55.574Z,39.20
2017-08-12T17:02:22.997Z,37.90
2017-08-12T17:04:50.441Z,38.30
2017-08-12T17:07:17.873Z,38.30
2017-08-12T17:29:54.491Z,39.10
2017-08-12T17:32:21.962Z,39.10
2017-08-12T17:34:49.647Z,39.00
2017-08-12T17:37:17.062Z,39.10
2017-08-12T17:39:44.514Z,39.10
2017-08-12T17:42:12.895Z,38.10
2017-08-12T17:44:41.455Z,38.10
2017-08-12T17:47:09.084Z,38.10
2017-08-12T17:49:36.917Z,37.50
2017-08-12T17:52:04.467Z,37.80
2017-08-12T17:54:32.079Z,37.20
2017-08-12T17:56:59.492Z,37.60
2017-08-12T17:59:26.943Z,37.20
2017-08-12T18:01:54.364Z,36.00
2017-08-12T18:04:21.924Z,36.10
2017-08-12T18:06:49.340Z,36.90
2017-08-12T18:09:16.763Z,37.30
2017-08-12T18:11:44.268Z,36.70
2017-08-12T18:14:11.687Z,37.10
2017-08-12T18:16:39.152Z,38.00
2017-08-12T18:19:06.593Z,38.00
2017-08-12T18:21:34.024Z,38.80
2017-08-12T18:24:02.247Z,39.70
2017-08-12T18:26:29.683Z,39.60
2017-08-12T18:28:57.103Z,40.20
2017-08-12T18:31:24.528Z,40.30
2017-08-12T18:33:51.979Z,40.60
2017-08-12T18:36:19.524Z,41.40
2017-08-12T18:38:46.942Z,40.40
2017-08-12T18:41:14.348Z,39.90
2017-08-12T18:43:41.781Z,40.10
2017-08-12T18:46:09.250Z,40.80
2017-08-12T18:48:36.720Z,39.80
2017-08-12T18:51:04.170Z,40.40
2017-08-12T18:53:31.612Z,40.80
2017-08-12T18:55:59.199Z,41.40
2017-08-12T18:58:26.636Z,41.00
2017-08-12T19:00:54.051Z,40.70
2017-08-12T19:03:21.486Z,40.50
2017-08-12T19:05:48.904Z,40.80
2017-08-12T19:08:16.332Z,41.00
2017-08-12T19:10:43.760Z,41.20
2017-08-12T19:13:11.959Z,40.60
2017-08-12T19:15:39.377Z,40.50
2017-08-12T19:18:06.816Z,40.60
2017-08-12T19:20:34.265Z,41.10
2017-08-12T19:23:01.692Z,41.30
2017-08-12T19:25:29.259Z,41.10
2017-08-12T19:27:56.719Z,41.30
2017-08-12T19:30:24.191Z,41.50
2017-08-12T19:32:51.606Z,41.50
2017-08-12T19:35:19.034Z,41.70
2017-08-12T19:37:46.475Z,41.60
2017-08-12T19:40:14.008Z,41.80
2017-08-12T19:45:15.951Z,42.30
2017-08-12T19:47:43.405Z,42.30
2017-08-12T19:50:10.800Z,41.20
2017-08-12T19:52:38.232Z,41.80
2017-08-12T19:55:05.751Z,41.80
2017-08-12T19:57:33.189Z,42.30
2017-08-12T20:00:00.604Z,41.40
2017-08-12T20:02:28.109Z,41.70
2017-08-12T20:04:55.536Z,41.60
2017-08-12T20:07:22.966Z,42.00
2017-08-12T20:09:50.396Z,42.30
2017-08-12T20:12:18.585Z,42.60
2017-08-12T20:14:46.028Z,42.60
2017-08-12T20:17:13.464Z,42.50
2017-08-12T20:19:40.892Z,42.20
2017-08-12T20:22:08.303Z,42.00
2017-08-12T20:24:35.765Z,42.70
2017-08-12T20:27:03.203Z,42.50
2017-08-12T20:29:31.412Z,42.50
2017-08-12T20:31:58.827Z,42.50
2017-08-12T20:34:26.340Z,42.50
2017-08-12T20:36:53.764Z,42.10
2017-08-12T20:39:21.183Z,42.40
2017-08-12T20:41:48.624Z,42.20
2017-08-12T20:44:16.031Z,42.10
2017-08-12T20:46:43.471Z,42.30
2017-08-12T20:49:11.668Z,41.80
2017-08-12T20:51:39.147Z,41.80
2017-08-12T20:54:06.579Z,42.10
2017-08-12T20:56:34.456Z,42.00
2017-08-12T20:59:01.928Z,42.20
2017-08-12T21:01:29.461Z,42.70
2017-08-12T21:03:56.954Z,42.10
2017-08-12T21:06:24.363Z,42.40
2017-08-12T21:08:51.833Z,43.10
2017-08-12T21:11:19.295Z,42.30
2017-08-12T21:13:46.781Z,43.10
2017-08-12T21:16:14.239Z,43.10
2017-08-12T21:18:41.678Z,42.70
2017-08-12T21:21:09.131Z,43.10
2017-08-12T21:23:36.588Z,43.10
2017-08-12T21:26:03.996Z,43.10
2017-08-12T21:28:32.191Z,43.20
2017-08-12T21:30:59.614Z,43.10
2017-08-12T21:33:27.030Z,43.00
2017-08-12T21:35:54.464Z,43.70
2017-08-12T21:38:21.934Z,44.30
2017-08-12T21:40:49.386Z,43.70
2017-08-12T21:43:16.808Z,43.00
2017-08-12T21:45:45.008Z,44.00
2017-08-12T21:48:12.419Z,44.00
2017-08-12T21:50:39.841Z,43.90
2017-08-12T21:53:07.263Z,43.40
2017-08-12T21:55:34.684Z,43.80
2017-08-12T21:58:02.204Z,44.00
2017-08-12T22:00:29.627Z,44.00
2017-08-12T22:02:57.221Z,43.70
2017-08-12T22:05:24.644Z,43.80
2017-08-12T22:07:52.077Z,44.30
2017-08-12T22:10:19.500Z,44.50
2017-08-12T22:12:46.946Z,44.60
2017-08-12T22:15:14.363Z,43.70
2017-08-12T22:17:41.960Z,43.00
2017-08-12T22:20:09.386Z,43.40
2017-08-12T22:22:36.859Z,44.00
2017-08-12T22:25:04.320Z,44.40
2017-08-12T22:27:31.740Z,44.00
2017-08-12T22:29:59.192Z,44.00
2017-08-12T22:32:26.616Z,44.40
2017-08-12T22:34:54.066Z,44.10
2017-08-12T22:37:21.483Z,44.20
2017-08-12T22:39:48.899Z,44.30
2017-08-12T22:42:17.091Z,44.20
2017-08-12T22:44:44.503Z,44.40
2017-08-12T22:47:11.935Z,44.80
2017-08-12T22:49:39.363Z,44.60
2017-08-12T22:52:07.599Z,44.80
2017-08-12T22:54:35.027Z,44.80
2017-08-12T22:57:02.452Z,44.90
2017-08-12T22:59:29.867Z,44.90
2017-08-12T23:01:57.295Z,44.80
2017-08-12T23:04:24.724Z,45.00
2017-08-12T23:06:52.148Z,44.90
2017-08-12T23:09:19.763Z,45.40
2017-08-12T23:11:47.187Z,45.40
2017-08-12T23:14:14.611Z,45.40
2017-08-12T23:16:42.040Z,45.40
2017-08-12T23:19:09.467Z,46.00
2017-08-12T23:21:36.892Z,45.70
2017-08-12T23:24:05.084Z,46.30
2017-08-12T23:26:32.515Z,45.60
2017-08-12T23:28:59.979Z,45.60
2017-08-12T23:31:27.403Z,46.00
2017-08-12T23:33:54.838Z,46.80
2017-08-12T23:36:22.264Z,47.00
2017-08-12T23:38:49.719Z,47.60
2017-08-12T23:41:17.308Z,47.50
2017-08-12T23:43:44.720Z,47.40
2017-08-12T23:46:12.148Z,47.40
2017-08-12T23:48:39.568Z,47.40
2017-08-12T23:51:07.064Z,47.50
2017-08-12T23:53:34.491Z,47.50
2017-08-12T23:56:01.928Z,47.50
2017-08-12T23:58:29.364Z,47.80
